sensor_id;sensor_type;location;lat;lon;timestamp;temperature;humidity
1413;DHT22;701;52.526;13.408;2022-08-07T00:01:34;17.10;8.60
1413;DHT22;701;52.526;13.408;2022-08-07T00:04:00;17.10;8.50
1413;DHT22;701;52.526;13.408;2022-08-07T00:06:26;17.00;8.60
1413;DHT22;701;52.526;13.408;2022-08-07T00:08:51;17.00;8.50
1413;DHT22;701;52.526;13.408;2022-08-07T00:11:17;17.00;8.50
1413;DHT22;701;52.526;13.408;2022-08-07T00:13:43;17.00;8.70
1413;DHT22;701;52.526;13.408;2022-08-07T00:16:11;17.00;8.70
1413;DHT22;701;52.526;13.408;2022-08-07T00:18:37;16.90;8.90
1413;DHT22;701;52.526;13.408;2022-08-07T00:21:06;16.90;9.10
1413;DHT22;701;52.526;13.408;2022-08-07T00:23:34;16.90;9.20
1413;DHT22;701;52.526;13.408;2022-08-07T00:26:02;16.90;9.30
1413;DHT22;701;52.526;13.408;2022-08-07T00:28:29;16.90;9.20
1413;DHT22;701;52.526;13.408;2022-08-07T00:30:56;16.90;9.30
1413;DHT22;701;52.526;13.408;2022-08-07T00:33:21;16.90;9.30
1413;DHT22;701;52.526;13.408;2022-08-07T00:35:52;16.90;9.30
1413;DHT22;701;52.526;13.408;2022-08-07T00:38:18;16.90;9.40
1413;DHT22;701;52.526;13.408;2022-08-07T00:40:43;16.80;9.40
1413;DHT22;701;52.526;13.408;2022-08-07T00:43:10;16.80;9.40
1413;DHT22;701;52.526;13.408;2022-08-07T00:45:40;16.80;9.60
1413;DHT22;701;52.526;13.408;2022-08-07T00:48:07;16.80;9.80
1413;DHT22;701;52.526;13.408;2022-08-07T00:50:34;16.70;9.70
1413;DHT22;701;52.526;13.408;2022-08-07T00:53:00;16.70;9.90
1413;DHT22;701;52.526;13.408;2022-08-07T00:55:26;16.70;10.10
1413;DHT22;701;52.526;13.408;2022-08-07T00:57:52;16.70;10.10
1413;DHT22;701;52.526;13.408;2022-08-07T01:00:18;16.60;10.10
1413;DHT22;701;52.526;13.408;2022-08-07T01:02:45;16.60;10.10
1413;DHT22;701;52.526;13.408;2022-08-07T01:05:11;16.60;10.10
1413;DHT22;701;52.526;13.408;2022-08-07T01:07:37;16.60;10.10
1413;DHT22;701;52.526;13.408;2022-08-07T01:10:04;16.50;10.00
1413;DHT22;701;52.526;13.408;2022-08-07T01:12:30;16.50;10.10
1413;DHT22;701;52.526;13.408;2022-08-07T01:14:58;16.50;10.20
1413;DHT22;701;52.526;13.408;2022-08-07T01:17:25;16.50;10.50
1413;DHT22;701;52.526;13.408;2022-08-07T01:19:53;16.50;10.60
1413;DHT22;701;52.526;13.408;2022-08-07T01:22:21;16.40;10.60
1413;DHT22;701;52.526;13.408;2022-08-07T01:24:48;16.40;10.70
1413;DHT22;701;52.526;13.408;2022-08-07T01:27:14;16.40;10.80
1413;DHT22;701;52.526;13.408;2022-08-07T01:29:40;16.40;10.90
1413;DHT22;701;52.526;13.408;2022-08-07T01:32:06;16.40;11.10
1413;DHT22;701;52.526;13.408;2022-08-07T01:34:33;16.30;11.00
1413;DHT22;701;52.526;13.408;2022-08-07T01:37:07;16.30;11.00
1413;DHT22;701;52.526;13.408;2022-08-07T01:39:33;16.40;11.20
1413;DHT22;701;52.526;13.408;2022-08-07T01:42:04;16.30;11.20
1413;DHT22;701;52.526;13.408;2022-08-07T01:44:32;16.30;11.40
1413;DHT22;701;52.526;13.408;2022-08-07T01:46:58;16.30;11.50
1413;DHT22;701;52.526;13.408;2022-08-07T01:49:27;16.30;11.50
1413;DHT22;701;52.526;13.408;2022-08-07T01:51:54;16.30;11.50
1413;DHT22;701;52.526;13.408;2022-08-07T01:54:21;16.20;11.60
1413;DHT22;701;52.526;13.408;2022-08-07T01:57:06;16.20;11.80
1413;DHT22;701;52.526;13.408;2022-08-07T01:59:50;16.20;12.00
1413;DHT22;701;52.526;13.408;2022-08-07T02:02:30;16.10;12.00
1413;DHT22;701;52.526;13.408;2022-08-07T02:05:13;16.10;12.10
1413;DHT22;701;52.526;13.408;2022-08-07T02:07:52;16.10;12.10
1413;DHT22;701;52.526;13.408;2022-08-07T02:10:25;16.10;12.10
1413;DHT22;701;52.526;13.408;2022-08-07T02:12:56;16.10;12.20
1413;DHT22;701;52.526;13.408;2022-08-07T02:15:28;16.10;12.20
1413;DHT22;701;52.526;13.408;2022-08-07T02:17:56;16.10;12.30
1413;DHT22;701;52.526;13.408;2022-08-07T02:20:23;16.10;12.40
1413;DHT22;701;52.526;13.408;2022-08-07T02:22:56;16.10;12.50
1413;DHT22;701;52.526;13.408;2022-08-07T02:25:23;16.00;12.60
1413;DHT22;701;52.526;13.408;2022-08-07T02:27:57;16.00;12.60
1413;DHT22;701;52.526;13.408;2022-08-07T02:30:26;16.00;13.30
1413;DHT22;701;52.526;13.408;2022-08-07T02:32:53;16.00;12.80
1413;DHT22;701;52.526;13.408;2022-08-07T02:35:21;16.00;12.80
1413;DHT22;701;52.526;13.408;2022-08-07T02:37:52;16.00;12.90
1413;DHT22;701;52.526;13.408;2022-08-07T02:40:18;15.90;13.00
1413;DHT22;701;52.526;13.408;2022-08-07T02:42:46;15.90;13.20
1413;DHT22;701;52.526;13.408;2022-08-07T02:45:14;15.90;13.30
1413;DHT22;701;52.526;13.408;2022-08-07T02:47:41;15.80;13.40
1413;DHT22;701;52.526;13.408;2022-08-07T02:50:13;15.80;13.30
1413;DHT22;701;52.526;13.408;2022-08-07T02:52:51;15.80;13.40
1413;DHT22;701;52.526;13.408;2022-08-07T02:55:22;15.80;13.30
1413;DHT22;701;52.526;13.408;2022-08-07T02:57:50;15.70;13.60
1413;DHT22;701;52.526;13.408;2022-08-07T03:00:16;15.70;13.60
1413;DHT22;701;52.526;13.408;2022-08-07T03:02:46;15.70;13.70
1413;DHT22;701;52.526;13.408;2022-08-07T03:05:14;15.70;13.90
1413;DHT22;701;52.526;13.408;2022-08-07T03:07:41;15.60;14.00
1413;DHT22;701;52.526;13.408;2022-08-07T03:10:08;15.60;14.10
1413;DHT22;701;52.526;13.408;2022-08-07T03:12:35;15.60;14.10
1413;DHT22;701;52.526;13.408;2022-08-07T03:15:07;15.60;14.20
1413;DHT22;701;52.526;13.408;2022-08-07T03:17:34;15.60;14.30
1413;DHT22;701;52.526;13.408;2022-08-07T03:20:04;15.60;14.40
1413;DHT22;701;52.526;13.408;2022-08-07T03:22:30;15.60;14.50
1413;DHT22;701;52.526;13.408;2022-08-07T03:24:58;15.60;14.60
1413;DHT22;701;52.526;13.408;2022-08-07T03:27:25;15.50;14.60
1413;DHT22;701;52.526;13.408;2022-08-07T03:29:52;15.50;14.60
1413;DHT22;701;52.526;13.408;2022-08-07T03:32:42;15.50;14.60
1413;DHT22;701;52.526;13.408;2022-08-07T03:35:16;15.50;14.80
1413;DHT22;701;52.526;13.408;2022-08-07T03:37:44;15.50;14.90
1413;DHT22;701;52.526;13.408;2022-08-07T03:40:12;15.50;15.00
1413;DHT22;701;52.526;13.408;2022-08-07T03:42:39;15.40;14.80
1413;DHT22;701;52.526;13.408;2022-08-07T03:45:07;15.40;14.90
1413;DHT22;701;52.526;13.408;2022-08-07T03:47:35;15.40;15.10
1413;DHT22;701;52.526;13.408;2022-08-07T03:50:02;15.40;15.10
1413;DHT22;701;52.526;13.408;2022-08-07T03:52:33;15.40;15.00
1413;DHT22;701;52.526;13.408;2022-08-07T03:55:04;15.40;15.00
1413;DHT22;701;52.526;13.408;2022-08-07T03:57:31;15.40;15.00
1413;DHT22;701;52.526;13.408;2022-08-07T03:59:58;15.40;15.00
1413;DHT22;701;52.526;13.408;2022-08-07T04:02:25;15.40;15.00
1413;DHT22;701;52.526;13.408;2022-08-07T04:04:51;15.40;15.00
1413;DHT22;701;52.526;13.408;2022-08-07T04:07:18;15.40;15.00
1413;DHT22;701;52.526;13.408;2022-08-07T04:09:48;15.50;15.00
1413;DHT22;701;52.526;13.408;2022-08-07T04:12:14;15.50;15.00
1413;DHT22;701;52.526;13.408;2022-08-07T04:14:41;15.50;15.00
1413;DHT22;701;52.526;13.408;2022-08-07T04:17:08;15.50;14.90
1413;DHT22;701;52.526;13.408;2022-08-07T04:19:34;15.50;14.80
1413;DHT22;701;52.526;13.408;2022-08-07T04:22:01;15.50;14.70
1413;DHT22;701;52.526;13.408;2022-08-07T04:24:31;15.60;14.60
1413;DHT22;701;52.526;13.408;2022-08-07T04:26:58;15.60;14.60
1413;DHT22;701;52.526;13.408;2022-08-07T04:29:27;15.60;14.40
1413;DHT22;701;52.526;13.408;2022-08-07T04:31:57;15.70;14.20
1413;DHT22;701;52.526;13.408;2022-08-07T04:34:23;15.70;14.10
1413;DHT22;701;52.526;13.408;2022-08-07T04:36:50;15.70;13.90
1413;DHT22;701;52.526;13.408;2022-08-07T04:39:16;15.80;13.90
1413;DHT22;701;52.526;13.408;2022-08-07T04:41:42;15.80;13.70
1413;DHT22;701;52.526;13.408;2022-08-07T04:44:08;15.90;13.60
1413;DHT22;701;52.526;13.408;2022-08-07T04:46:49;15.90;13.40
1413;DHT22;701;52.526;13.408;2022-08-07T04:49:33;16.00;13.50
1413;DHT22;701;52.526;13.408;2022-08-07T04:55:14;16.00;13.40
1413;DHT22;701;52.526;13.408;2022-08-07T04:57:53;16.10;13.20
1413;DHT22;701;52.526;13.408;2022-08-07T05:00:53;16.20;13.10
1413;DHT22;701;52.526;13.408;2022-08-07T05:03:47;16.20;12.90
1413;DHT22;701;52.526;13.408;2022-08-07T05:06:39;16.20;12.60
1413;DHT22;701;52.526;13.408;2022-08-07T05:11:49;16.40;12.50
1413;DHT22;701;52.526;13.408;2022-08-07T05:14:24;16.40;12.40
1413;DHT22;701;52.526;13.408;2022-08-07T05:16:54;16.50;12.40
1413;DHT22;701;52.526;13.408;2022-08-07T05:19:24;16.60;12.30
1413;DHT22;701;52.526;13.408;2022-08-07T05:21:55;16.60;12.20
1413;DHT22;701;52.526;13.408;2022-08-07T05:24:23;16.70;12.00
1413;DHT22;701;52.526;13.408;2022-08-07T05:26:54;16.80;11.90
1413;DHT22;701;52.526;13.408;2022-08-07T05:29:22;16.80;11.70
1413;DHT22;701;52.526;13.408;2022-08-07T05:31:50;16.90;11.50
1413;DHT22;701;52.526;13.408;2022-08-07T05:34:19;16.90;11.20
1413;DHT22;701;52.526;13.408;2022-08-07T05:36:49;17.00;11.00
1413;DHT22;701;52.526;13.408;2022-08-07T05:39:44;17.10;10.70
1413;DHT22;701;52.526;13.408;2022-08-07T05:42:12;17.20;10.50
1413;DHT22;701;52.526;13.408;2022-08-07T05:44:41;17.30;10.50
1413;DHT22;701;52.526;13.408;2022-08-07T05:47:08;17.30;10.50
1413;DHT22;701;52.526;13.408;2022-08-07T05:49:35;17.40;10.60
1413;DHT22;701;52.526;13.408;2022-08-07T05:52:03;17.50;10.10
1413;DHT22;701;52.526;13.408;2022-08-07T05:54:30;17.50;9.90
1413;DHT22;701;52.526;13.408;2022-08-07T05:56:57;17.60;9.80
1413;DHT22;701;52.526;13.408;2022-08-07T05:59:25;17.70;9.50
1413;DHT22;701;52.526;13.408;2022-08-07T06:01:57;17.80;8.90
1413;DHT22;701;52.526;13.408;2022-08-07T06:04:25;17.90;8.70
1413;DHT22;701;52.526;13.408;2022-08-07T06:06:53;17.90;8.50
1413;DHT22;701;52.526;13.408;2022-08-07T06:09:19;18.10;8.30
1413;DHT22;701;52.526;13.408;2022-08-07T06:11:47;18.10;8.20
1413;DHT22;701;52.526;13.408;2022-08-07T06:14:14;18.20;8.50
1413;DHT22;701;52.526;13.408;2022-08-07T06:16:45;18.30;7.50
1413;DHT22;701;52.526;13.408;2022-08-07T06:19:12;18.30;7.30
1413;DHT22;701;52.526;13.408;2022-08-07T06:21:38;18.40;7.40
1413;DHT22;701;52.526;13.408;2022-08-07T06:24:06;18.50;6.70
1413;DHT22;701;52.526;13.408;2022-08-07T06:26:32;18.60;6.40
1413;DHT22;701;52.526;13.408;2022-08-07T06:28:58;18.70;6.30
1413;DHT22;701;52.526;13.408;2022-08-07T06:31:26;18.70;6.00
1413;DHT22;701;52.526;13.408;2022-08-07T06:33:54;18.80;5.80
1413;DHT22;701;52.526;13.408;2022-08-07T06:36:20;18.90;5.60
1413;DHT22;701;52.526;13.408;2022-08-07T06:38:50;18.90;5.40
1413;DHT22;701;52.526;13.408;2022-08-07T06:41:23;19.00;4.80
1413;DHT22;701;52.526;13.408;2022-08-07T06:43:52;19.20;4.80
1413;DHT22;701;52.526;13.408;2022-08-07T06:46:19;19.30;4.70
1413;DHT22;701;52.526;13.408;2022-08-07T06:48:45;19.30;4.60
1413;DHT22;701;52.526;13.408;2022-08-07T06:51:27;19.40;4.40
1413;DHT22;701;52.526;13.408;2022-08-07T06:53:54;19.40;4.20
1413;DHT22;701;52.526;13.408;2022-08-07T06:56:22;19.50;4.20
1413;DHT22;701;52.526;13.408;2022-08-07T06:59:37;19.60;4.30
1413;DHT22;701;52.526;13.408;2022-08-07T07:02:19;19.60;4.00
1413;DHT22;701;52.526;13.408;2022-08-07T07:04:46;19.70;3.50
1413;DHT22;701;52.526;13.408;2022-08-07T07:07:13;19.80;3.70
1413;DHT22;701;52.526;13.408;2022-08-07T07:09:47;19.90;3.40
1413;DHT22;701;52.526;13.408;2022-08-07T07:17:52;20.20;2.20
1413;DHT22;701;52.526;13.408;2022-08-07T07:20:50;21.00;1.30
1413;DHT22;701;52.526;13.408;2022-08-07T07:23:17;23.10;1.00
1413;DHT22;701;52.526;13.408;2022-08-07T07:25:46;25.70;1.00
1413;DHT22;701;52.526;13.408;2022-08-07T07:28:21;28.10;1.00
1413;DHT22;701;52.526;13.408;2022-08-07T07:31:01;30.50;1.00
1413;DHT22;701;52.526;13.408;2022-08-07T07:33:29;32.50;1.00
1413;DHT22;701;52.526;13.408;2022-08-07T07:35:57;34.30;1.00
1413;DHT22;701;52.526;13.408;2022-08-07T07:38:23;35.90;1.00
1413;DHT22;701;52.526;13.408;2022-08-07T07:40:58;37.20;1.00
1413;DHT22;701;52.526;13.408;2022-08-07T07:43:26;38.70;1.00
1413;DHT22;701;52.526;13.408;2022-08-07T07:45:53;40.10;1.00
1413;DHT22;701;52.526;13.408;2022-08-07T07:48:21;41.10;1.00
1413;DHT22;701;52.526;13.408;2022-08-07T07:50:50;42.00;1.00
1413;DHT22;701;52.526;13.408;2022-08-07T07:53:18;42.60;1.00
1413;DHT22;701;52.526;13.408;2022-08-07T07:55:45;43.30;1.00
1413;DHT22;701;52.526;13.408;2022-08-07T07:58:12;43.80;1.00
1413;DHT22;701;52.526;13.408;2022-08-07T08:00:40;44.40;1.00
1413;DHT22;701;52.526;13.408;2022-08-07T08:03:09;44.60;1.00
1413;DHT22;701;52.526;13.408;2022-08-07T08:05:37;44.80;1.00
1413;DHT22;701;52.526;13.408;2022-08-07T08:08:03;45.20;1.00
1413;DHT22;701;52.526;13.408;2022-08-07T08:10:30;45.70;1.00
1413;DHT22;701;52.526;13.408;2022-08-07T08:12:58;46.10;1.00
1413;DHT22;701;52.526;13.408;2022-08-07T08:15:30;46.50;1.00
1413;DHT22;701;52.526;13.408;2022-08-07T08:17:59;47.10;1.00
1413;DHT22;701;52.526;13.408;2022-08-07T08:20:26;47.20;1.00
1413;DHT22;701;52.526;13.408;2022-08-07T08:22:54;47.30;1.00
1413;DHT22;701;52.526;13.408;2022-08-07T08:25:40;47.30;1.00
1413;DHT22;701;52.526;13.408;2022-08-07T08:28:27;46.70;1.00
1413;DHT22;701;52.526;13.408;2022-08-07T08:30:58;46.00;1.00
1413;DHT22;701;52.526;13.408;2022-08-07T08:33:28;45.50;1.00
1413;DHT22;701;52.526;13.408;2022-08-07T08:35:56;45.60;1.00
1413;DHT22;701;52.526;13.408;2022-08-07T08:38:25;46.00;1.00
1413;DHT22;701;52.526;13.408;2022-08-07T08:41:01;46.40;1.00
1413;DHT22;701;52.526;13.408;2022-08-07T08:51:21;47.20;1.00
1413;DHT22;701;52.526;13.408;2022-08-07T08:53:56;47.80;1.00
1413;DHT22;701;52.526;13.408;2022-08-07T08:56:42;48.20;1.00
1413;DHT22;701;52.526;13.408;2022-08-07T09:01:49;48.20;1.00
1413;DHT22;701;52.526;13.408;2022-08-07T09:07:02;46.90;1.00
1413;DHT22;701;52.526;13.408;2022-08-07T09:27:04;36.20;1.00
1413;DHT22;701;52.526;13.408;2022-08-07T09:29:45;34.40;1.00
1413;DHT22;701;52.526;13.408;2022-08-07T09:35:06;31.90;1.00
1413;DHT22;701;52.526;13.408;2022-08-07T09:37:42;31.10;1.00
1413;DHT22;701;52.526;13.408;2022-08-07T09:40:31;31.20;1.00
1413;DHT22;701;52.526;13.408;2022-08-07T09:43:25;32.30;1.00
1413;DHT22;701;52.526;13.408;2022-08-07T09:46:07;33.60;1.00
1413;DHT22;701;52.526;13.408;2022-08-07T09:54:37;37.30;1.00
1413;DHT22;701;52.526;13.408;2022-08-07T10:00:07;38.20;1.00
1413;DHT22;701;52.526;13.408;2022-08-07T10:06:23;39.40;1.00
1413;DHT22;701;52.526;13.408;2022-08-07T10:09:28;39.10;1.00
1413;DHT22;701;52.526;13.408;2022-08-07T10:20:27;34.70;1.00
1413;DHT22;701;52.526;13.408;2022-08-07T10:42:03;29.20;1.00
1413;DHT22;701;52.526;13.408;2022-08-07T10:44:47;28.90;1.00
1413;DHT22;701;52.526;13.408;2022-08-07T10:50:22;28.80;1.00
1413;DHT22;701;52.526;13.408;2022-08-07T10:53:11;28.80;1.00
1413;DHT22;701;52.526;13.408;2022-08-07T10:58:51;29.20;1.00
1413;DHT22;701;52.526;13.408;2022-08-07T11:06:19;28.80;1.00
1413;DHT22;701;52.526;13.408;2022-08-07T11:09:13;28.50;1.00
1413;DHT22;701;52.526;13.408;2022-08-07T11:12:01;28.20;1.00
1413;DHT22;701;52.526;13.408;2022-08-07T11:14:39;28.10;1.00
1413;DHT22;701;52.526;13.408;2022-08-07T11:17:29;28.10;1.00
1413;DHT22;701;52.526;13.408;2022-08-07T11:20:05;28.10;1.00
1413;DHT22;701;52.526;13.408;2022-08-07T11:23:06;28.10;1.00
1413;DHT22;701;52.526;13.408;2022-08-07T11:25:35;28.10;1.00
1413;DHT22;701;52.526;13.408;2022-08-07T11:28:13;28.00;1.00
1413;DHT22;701;52.526;13.408;2022-08-07T11:31:01;28.10;1.00
1413;DHT22;701;52.526;13.408;2022-08-07T11:33:43;28.40;1.00
1413;DHT22;701;52.526;13.408;2022-08-07T11:38:52;28.70;1.00
1413;DHT22;701;52.526;13.408;2022-08-07T11:41:23;28.60;1.00
1413;DHT22;701;52.526;13.408;2022-08-07T11:44:21;28.60;1.00
1413;DHT22;701;52.526;13.408;2022-08-07T11:58:17;28.60;1.00
1413;DHT22;701;52.526;13.408;2022-08-07T12:03:29;28.40;1.00
1413;DHT22;701;52.526;13.408;2022-08-07T12:11:44;27.90;1.00
1413;DHT22;701;52.526;13.408;2022-08-07T12:14:16;27.70;1.00
1413;DHT22;701;52.526;13.408;2022-08-07T12:16:50;27.50;1.00
1413;DHT22;701;52.526;13.408;2022-08-07T12:22:18;27.40;1.00
1413;DHT22;701;52.526;13.408;2022-08-07T12:25:08;27.40;1.00
1413;DHT22;701;52.526;13.408;2022-08-07T12:27:59;27.40;1.00
1413;DHT22;701;52.526;13.408;2022-08-07T12:30:32;27.60;1.00
1413;DHT22;701;52.526;13.408;2022-08-07T12:33:03;27.70;1.00
1413;DHT22;701;52.526;13.408;2022-08-07T12:35:32;27.70;1.00
1413;DHT22;701;52.526;13.408;2022-08-07T12:37:59;27.80;1.00
1413;DHT22;701;52.526;13.408;2022-08-07T12:40:31;27.90;1.00
1413;DHT22;701;52.526;13.408;2022-08-07T12:43:02;28.00;1.00
1413;DHT22;701;52.526;13.408;2022-08-07T12:45:54;28.10;1.00
1413;DHT22;701;52.526;13.408;2022-08-07T12:51:14;28.20;1.00
1413;DHT22;701;52.526;13.408;2022-08-07T12:56:26;28.30;1.00
1413;DHT22;701;52.526;13.408;2022-08-07T12:58:54;28.30;1.00
1413;DHT22;701;52.526;13.408;2022-08-07T13:01:52;28.40;1.00
1413;DHT22;701;52.526;13.408;2022-08-07T13:13:16;28.70;1.00
1413;DHT22;701;52.526;13.408;2022-08-07T13:16:25;28.80;1.00
1413;DHT22;701;52.526;13.408;2022-08-07T13:22:00;28.50;1.00
1413;DHT22;701;52.526;13.408;2022-08-07T13:25:22;28.40;1.00
1413;DHT22;701;52.526;13.408;2022-08-07T13:27:25;28.30;1.00
1413;DHT22;701;52.526;13.408;2022-08-07T13:29:58;28.30;1.00
1413;DHT22;701;52.526;13.408;2022-08-07T13:40:52;28.00;1.00
1413;DHT22;701;52.526;13.408;2022-08-07T13:43:20;27.90;1.00
1413;DHT22;701;52.526;13.408;2022-08-07T13:45:54;28.00;1.00
1413;DHT22;701;52.526;13.408;2022-08-07T13:48:21;28.00;1.00
1413;DHT22;701;52.526;13.408;2022-08-07T13:50:49;27.70;1.00
1413;DHT22;701;52.526;13.408;2022-08-07T13:53:21;27.50;1.00
1413;DHT22;701;52.526;13.408;2022-08-07T13:55:48;27.30;1.00
1413;DHT22;701;52.526;13.408;2022-08-07T13:58:16;27.00;1.00
1413;DHT22;701;52.526;13.408;2022-08-07T14:01:11;26.90;1.00
1413;DHT22;701;52.526;13.408;2022-08-07T14:03:39;26.70;1.00
1413;DHT22;701;52.526;13.408;2022-08-07T14:06:09;26.50;1.00
1413;DHT22;701;52.526;13.408;2022-08-07T14:08:42;26.30;1.00
1413;DHT22;701;52.526;13.408;2022-08-07T14:11:12;26.10;1.00
1413;DHT22;701;52.526;13.408;2022-08-07T14:13:39;25.90;1.00
1413;DHT22;701;52.526;13.408;2022-08-07T14:16:11;25.90;1.00
1413;DHT22;701;52.526;13.408;2022-08-07T14:18:39;25.80;1.00
1413;DHT22;701;52.526;13.408;2022-08-07T14:21:11;25.70;1.00
1413;DHT22;701;52.526;13.408;2022-08-07T14:23:42;25.70;1.00
1413;DHT22;701;52.526;13.408;2022-08-07T14:26:12;25.60;1.00
1413;DHT22;701;52.526;13.408;2022-08-07T14:28:43;25.60;1.00
1413;DHT22;701;52.526;13.408;2022-08-07T14:31:11;25.50;1.00
1413;DHT22;701;52.526;13.408;2022-08-07T14:33:39;25.50;1.00
1413;DHT22;701;52.526;13.408;2022-08-07T14:36:06;25.60;1.00
1413;DHT22;701;52.526;13.408;2022-08-07T14:38:34;25.80;1.00
1413;DHT22;701;52.526;13.408;2022-08-07T14:41:04;25.90;1.00
1413;DHT22;701;52.526;13.408;2022-08-07T14:43:32;26.10;1.00
1413;DHT22;701;52.526;13.408;2022-08-07T14:45:59;26.20;1.00
1413;DHT22;701;52.526;13.408;2022-08-07T14:48:27;26.30;1.00
1413;DHT22;701;52.526;13.408;2022-08-07T14:50:57;26.50;1.00
1413;DHT22;701;52.526;13.408;2022-08-07T14:53:24;26.50;1.00
1413;DHT22;701;52.526;13.408;2022-08-07T14:55:52;26.60;1.00
1413;DHT22;701;52.526;13.408;2022-08-07T14:58:23;26.60;1.00
1413;DHT22;701;52.526;13.408;2022-08-07T15:00:50;26.60;1.00
1413;DHT22;701;52.526;13.408;2022-08-07T15:03:21;26.70;1.00
1413;DHT22;701;52.526;13.408;2022-08-07T15:05:48;26.90;1.00
1413;DHT22;701;52.526;13.408;2022-08-07T15:08:34;27.00;1.00
1413;DHT22;701;52.526;13.408;2022-08-07T15:11:05;27.00;1.00
1413;DHT22;701;52.526;13.408;2022-08-07T15:13:35;27.20;1.00
1413;DHT22;701;52.526;13.408;2022-08-07T15:16:06;27.20;1.00
1413;DHT22;701;52.526;13.408;2022-08-07T15:18:37;27.20;1.00
1413;DHT22;701;52.526;13.408;2022-08-07T15:21:17;27.30;1.00
1413;DHT22;701;52.526;13.408;2022-08-07T15:23:47;27.30;1.00
1413;DHT22;701;52.526;13.408;2022-08-07T15:26:14;27.30;1.00
1413;DHT22;701;52.526;13.408;2022-08-07T15:28:42;27.40;1.00
1413;DHT22;701;52.526;13.408;2022-08-07T15:31:10;27.40;1.00
1413;DHT22;701;52.526;13.408;2022-08-07T15:33:39;27.40;1.00
1413;DHT22;701;52.526;13.408;2022-08-07T15:36:06;27.40;1.00
1413;DHT22;701;52.526;13.408;2022-08-07T15:38:34;27.40;1.00
1413;DHT22;701;52.526;13.408;2022-08-07T15:41:05;27.40;1.00
1413;DHT22;701;52.526;13.408;2022-08-07T15:43:33;27.40;1.00
1413;DHT22;701;52.526;13.408;2022-08-07T15:46:15;27.50;1.00
1413;DHT22;701;52.526;13.408;2022-08-07T15:48:43;27.50;1.00
1413;DHT22;701;52.526;13.408;2022-08-07T15:51:11;27.50;1.00
1413;DHT22;701;52.526;13.408;2022-08-07T15:53:55;27.60;1.00
1413;DHT22;701;52.526;13.408;2022-08-07T15:56:31;27.60;1.00
1413;DHT22;701;52.526;13.408;2022-08-07T15:59:01;27.60;1.00
1413;DHT22;701;52.526;13.408;2022-08-07T16:01:38;27.50;1.00
1413;DHT22;701;52.526;13.408;2022-08-07T16:04:10;27.50;1.00
1413;DHT22;701;52.526;13.408;2022-08-07T16:06:42;27.50;1.00
1413;DHT22;701;52.526;13.408;2022-08-07T16:23:27;27.60;1.00
1413;DHT22;701;52.526;13.408;2022-08-07T16:34:12;27.20;1.00
1413;DHT22;701;52.526;13.408;2022-08-07T16:56:35;25.70;1.00
1413;DHT22;701;52.526;13.408;2022-08-07T17:01:59;25.50;1.00
1413;DHT22;701;52.526;13.408;2022-08-07T17:04:34;25.30;1.00
1413;DHT22;701;52.526;13.408;2022-08-07T17:07:21;25.30;1.00
1413;DHT22;701;52.526;13.408;2022-08-07T17:09:52;25.10;1.00
1413;DHT22;701;52.526;13.408;2022-08-07T17:20:32;24.80;1.00
1413;DHT22;701;52.526;13.408;2022-08-07T17:31:48;24.40;1.00
1413;DHT22;701;52.526;13.408;2022-08-07T17:34:16;24.30;1.00
1413;DHT22;701;52.526;13.408;2022-08-07T17:36:48;24.30;1.00
1413;DHT22;701;52.526;13.408;2022-08-07T17:39:39;24.20;1.00
1413;DHT22;701;52.526;13.408;2022-08-07T17:42:20;24.10;1.00
1413;DHT22;701;52.526;13.408;2022-08-07T17:44:54;24.10;1.00
1413;DHT22;701;52.526;13.408;2022-08-07T17:47:42;23.90;1.00
1413;DHT22;701;52.526;13.408;2022-08-07T17:50:21;23.90;1.00
1413;DHT22;701;52.526;13.408;2022-08-07T17:52:53;23.90;1.00
1413;DHT22;701;52.526;13.408;2022-08-07T17:58:03;23.80;1.00
1413;DHT22;701;52.526;13.408;2022-08-07T18:00:34;23.70;1.00
1413;DHT22;701;52.526;13.408;2022-08-07T18:03:14;23.70;1.00
1413;DHT22;701;52.526;13.408;2022-08-07T18:06:03;23.60;1.00
1413;DHT22;701;52.526;13.408;2022-08-07T18:14:12;23.50;1.00
1413;DHT22;701;52.526;13.408;2022-08-07T18:16:58;23.50;1.00
1413;DHT22;701;52.526;13.408;2022-08-07T18:19:41;23.40;1.00
1413;DHT22;701;52.526;13.408;2022-08-07T18:22:14;23.40;1.00
1413;DHT22;701;52.526;13.408;2022-08-07T18:24:49;23.30;1.00
1413;DHT22;701;52.526;13.408;2022-08-07T18:30:09;23.20;1.00
1413;DHT22;701;52.526;13.408;2022-08-07T18:38:21;23.00;1.00
1413;DHT22;701;52.526;13.408;2022-08-07T18:41:10;22.90;1.00
1413;DHT22;701;52.526;13.408;2022-08-07T18:43:59;22.80;1.00
1413;DHT22;701;52.526;13.408;2022-08-07T18:46:38;22.70;1.00
1413;DHT22;701;52.526;13.408;2022-08-07T18:49:22;22.60;1.00
1413;DHT22;701;52.526;13.408;2022-08-07T18:52:02;22.50;1.00
1413;DHT22;701;52.526;13.408;2022-08-07T19:00:04;22.20;1.00
1413;DHT22;701;52.526;13.408;2022-08-07T19:02:56;22.10;1.00
1413;DHT22;701;52.526;13.408;2022-08-07T19:05:35;22.00;1.00
1413;DHT22;701;52.526;13.408;2022-08-07T19:08:30;21.90;1.00
1413;DHT22;701;52.526;13.408;2022-08-07T19:19:47;21.70;1.00
1413;DHT22;701;52.526;13.408;2022-08-07T19:24:52;21.50;1.00
1413;DHT22;701;52.526;13.408;2022-08-07T19:27:20;21.50;1.00
1413;DHT22;701;52.526;13.408;2022-08-07T19:30:11;21.40;1.00
1413;DHT22;701;52.526;13.408;2022-08-07T19:32:39;21.40;1.00
1413;DHT22;701;52.526;13.408;2022-08-07T19:35:11;21.30;1.00
1413;DHT22;701;52.526;13.408;2022-08-07T19:37:39;21.30;1.00
1413;DHT22;701;52.526;13.408;2022-08-07T19:40:08;21.20;1.00
1413;DHT22;701;52.526;13.408;2022-08-07T19:42:39;21.10;1.00
1413;DHT22;701;52.526;13.408;2022-08-07T19:45:17;21.10;1.00
1413;DHT22;701;52.526;13.408;2022-08-07T19:47:48;21.10;1.00
1413;DHT22;701;52.526;13.408;2022-08-07T19:50:14;21.00;1.00
1413;DHT22;701;52.526;13.408;2022-08-07T19:52:41;21.00;1.00
1413;DHT22;701;52.526;13.408;2022-08-07T19:55:07;21.00;1.00
1413;DHT22;701;52.526;13.408;2022-08-07T19:57:41;20.90;1.00
1413;DHT22;701;52.526;13.408;2022-08-07T20:00:13;20.90;1.00
1413;DHT22;701;52.526;13.408;2022-08-07T20:02:45;20.80;1.00
1413;DHT22;701;52.526;13.408;2022-08-07T20:05:14;20.80;1.00
1413;DHT22;701;52.526;13.408;2022-08-07T20:07:43;20.80;1.00
1413;DHT22;701;52.526;13.408;2022-08-07T20:10:11;20.70;1.00
1413;DHT22;701;52.526;13.408;2022-08-07T20:12:39;20.60;1.00
1413;DHT22;701;52.526;13.408;2022-08-07T20:15:09;20.60;1.00
1413;DHT22;701;52.526;13.408;2022-08-07T20:17:38;20.60;1.00
1413;DHT22;701;52.526;13.408;2022-08-07T20:20:05;20.60;1.00
1413;DHT22;701;52.526;13.408;2022-08-07T20:22:33;20.60;1.00
1413;DHT22;701;52.526;13.408;2022-08-07T20:25:05;20.60;1.00
1413;DHT22;701;52.526;13.408;2022-08-07T20:27:33;20.50;1.00
1413;DHT22;701;52.526;13.408;2022-08-07T20:30:02;20.50;1.00
1413;DHT22;701;52.526;13.408;2022-08-07T20:32:32;20.50;1.00
1413;DHT22;701;52.526;13.408;2022-08-07T20:35:07;20.50;1.00
1413;DHT22;701;52.526;13.408;2022-08-07T20:37:39;20.50;1.00
1413;DHT22;701;52.526;13.408;2022-08-07T20:40:07;20.40;1.00
1413;DHT22;701;52.526;13.408;2022-08-07T20:42:37;20.40;1.00
1413;DHT22;701;52.526;13.408;2022-08-07T20:45:05;20.30;1.00
1413;DHT22;701;52.526;13.408;2022-08-07T20:47:32;20.30;1.00